sensor_id;sensor_type;location;lat;lon;timestamp;temperature;humidity
38488;DHT22;57384;51.986;4.458;2023-04-01T00:01:27;11.80;76.90
38488;DHT22;57384;51.986;4.458;2023-04-01T00:04:15;11.80;76.90
38488;DHT22;57384;51.986;4.458;2023-04-01T00:10:10;11.80;76.90
38488;DHT22;57384;51.986;4.458;2023-04-01T00:12:54;11.70;76.90
38488;DHT22;57384;51.986;4.458;2023-04-01T00:15:39;11.70;76.90
38488;DHT22;57384;51.986;4.458;2023-04-01T00:18:23;11.70;76.90
38488;DHT22;57384;51.986;4.458;2023-04-01T00:21:08;11.70;76.90
38488;DHT22;57384;51.986;4.458;2023-04-01T00:23:52;11.70;76.90
38488;DHT22;57384;51.986;4.458;2023-04-01T00:26:39;11.70;77.00
38488;DHT22;57384;51.986;4.458;2023-04-01T00:29:26;11.60;76.90
38488;DHT22;57384;51.986;4.458;2023-04-01T00:32:10;11.60;76.90
38488;DHT22;57384;51.986;4.458;2023-04-01T00:34:58;11.70;77.00
38488;DHT22;57384;51.986;4.458;2023-04-01T00:37:42;11.60;76.90
38488;DHT22;57384;51.986;4.458;2023-04-01T00:43:12;11.60;77.00
38488;DHT22;57384;51.986;4.458;2023-04-01T00:45:57;11.60;77.10
38488;DHT22;57384;51.986;4.458;2023-04-01T00:48:42;11.60;77.00
38488;DHT22;57384;51.986;4.458;2023-04-01T00:51:27;11.60;77.10
38488;DHT22;57384;51.986;4.458;2023-04-01T00:54:12;11.60;77.10
38488;DHT22;57384;51.986;4.458;2023-04-01T00:56:58;11.60;77.10
38488;DHT22;57384;51.986;4.458;2023-04-01T00:59:44;11.60;77.10
38488;DHT22;57384;51.986;4.458;2023-04-01T01:02:28;11.60;77.10
38488;DHT22;57384;51.986;4.458;2023-04-01T01:05:14;11.50;77.10
38488;DHT22;57384;51.986;4.458;2023-04-01T01:08:21;11.60;77.10
38488;DHT22;57384;51.986;4.458;2023-04-01T01:11:10;11.60;77.20
38488;DHT22;57384;51.986;4.458;2023-04-01T01:16:58;11.60;77.20
38488;DHT22;57384;51.986;4.458;2023-04-01T01:22:39;11.50;77.20
38488;DHT22;57384;51.986;4.458;2023-04-01T01:34:22;11.40;77.20
38488;DHT22;57384;51.986;4.458;2023-04-01T01:37:10;11.40;77.20
38488;DHT22;57384;51.986;4.458;2023-04-01T01:39:58;11.50;77.30
38488;DHT22;57384;51.986;4.458;2023-04-01T01:42:47;11.50;77.40
38488;DHT22;57384;51.986;4.458;2023-04-01T01:45:32;11.40;77.30
38488;DHT22;57384;51.986;4.458;2023-04-01T01:48:18;11.50;77.40
38488;DHT22;57384;51.986;4.458;2023-04-01T01:51:04;11.40;77.40
38488;DHT22;57384;51.986;4.458;2023-04-01T01:53:49;11.40;77.50
38488;DHT22;57384;51.986;4.458;2023-04-01T01:56:33;11.40;77.50
38488;DHT22;57384;51.986;4.458;2023-04-01T01:59:18;11.40;77.50
38488;DHT22;57384;51.986;4.458;2023-04-01T02:02:04;11.40;77.50
38488;DHT22;57384;51.986;4.458;2023-04-01T02:04:48;11.40;77.50
38488;DHT22;57384;51.986;4.458;2023-04-01T02:07:33;11.40;77.60
38488;DHT22;57384;51.986;4.458;2023-04-01T02:10:19;11.40;77.60
38488;DHT22;57384;51.986;4.458;2023-04-01T02:13:06;11.40;77.60
38488;DHT22;57384;51.986;4.458;2023-04-01T02:15:51;11.40;77.60
38488;DHT22;57384;51.986;4.458;2023-04-01T02:18:42;11.30;77.60
38488;DHT22;57384;51.986;4.458;2023-04-01T02:21:31;11.30;77.60
38488;DHT22;57384;51.986;4.458;2023-04-01T02:24:15;11.30;77.60
38488;DHT22;57384;51.986;4.458;2023-04-01T02:26:59;11.30;77.70
38488;DHT22;57384;51.986;4.458;2023-04-01T02:29:44;11.30;77.70
38488;DHT22;57384;51.986;4.458;2023-04-01T02:32:30;11.30;77.70
38488;DHT22;57384;51.986;4.458;2023-04-01T02:35:15;11.30;77.70
38488;DHT22;57384;51.986;4.458;2023-04-01T02:38:00;11.30;77.70
38488;DHT22;57384;51.986;4.458;2023-04-01T02:40:49;11.30;77.80
38488;DHT22;57384;51.986;4.458;2023-04-01T02:43:36;11.30;77.80
38488;DHT22;57384;51.986;4.458;2023-04-01T02:46:20;11.30;77.80
38488;DHT22;57384;51.986;4.458;2023-04-01T02:49:04;11.30;77.80
38488;DHT22;57384;51.986;4.458;2023-04-01T02:51:48;11.30;77.80
38488;DHT22;57384;51.986;4.458;2023-04-01T02:54:33;11.30;77.90
38488;DHT22;57384;51.986;4.458;2023-04-01T02:57:17;11.30;77.90
38488;DHT22;57384;51.986;4.458;2023-04-01T03:00:04;11.30;78.00
38488;DHT22;57384;51.986;4.458;2023-04-01T03:02:49;11.30;78.00
38488;DHT22;57384;51.986;4.458;2023-04-01T03:05:37;11.30;78.00
38488;DHT22;57384;51.986;4.458;2023-04-01T03:08:21;11.20;78.00
38488;DHT22;57384;51.986;4.458;2023-04-01T03:11:05;11.30;78.00
38488;DHT22;57384;51.986;4.458;2023-04-01T03:13:50;11.30;78.00
38488;DHT22;57384;51.986;4.458;2023-04-01T03:16:34;11.30;78.70
38488;DHT22;57384;51.986;4.458;2023-04-01T03:19:18;11.30;78.10
38488;DHT22;57384;51.986;4.458;2023-04-01T03:22:02;11.30;78.20
38488;DHT22;57384;51.986;4.458;2023-04-01T03:24:47;11.20;78.20
38488;DHT22;57384;51.986;4.458;2023-04-01T03:27:32;11.30;78.30
38488;DHT22;57384;51.986;4.458;2023-04-01T03:30:19;11.30;78.30
38488;DHT22;57384;51.986;4.458;2023-04-01T03:33:06;11.30;78.40
38488;DHT22;57384;51.986;4.458;2023-04-01T03:35:51;11.30;78.40
38488;DHT22;57384;51.986;4.458;2023-04-01T03:38:41;11.20;78.40
38488;DHT22;57384;51.986;4.458;2023-04-01T03:41:28;11.20;78.40
38488;DHT22;57384;51.986;4.458;2023-04-01T03:44:12;11.20;78.40
38488;DHT22;57384;51.986;4.458;2023-04-01T03:46:56;11.30;78.60
38488;DHT22;57384;51.986;4.458;2023-04-01T03:49:40;11.20;78.60
38488;DHT22;57384;51.986;4.458;2023-04-01T03:52:35;11.30;78.60
38488;DHT22;57384;51.986;4.458;2023-04-01T03:55:20;11.30;78.60
38488;DHT22;57384;51.986;4.458;2023-04-01T03:58:05;11.30;78.70
38488;DHT22;57384;51.986;4.458;2023-04-01T04:00:49;11.30;78.80
38488;DHT22;57384;51.986;4.458;2023-04-01T04:03:33;11.30;78.70
38488;DHT22;57384;51.986;4.458;2023-04-01T04:06:19;11.20;78.60
38488;DHT22;57384;51.986;4.458;2023-04-01T04:09:03;11.30;78.70
38488;DHT22;57384;51.986;4.458;2023-04-01T04:11:48;11.20;78.70
38488;DHT22;57384;51.986;4.458;2023-04-01T04:14:34;11.20;78.70
38488;DHT22;57384;51.986;4.458;2023-04-01T04:17:18;11.30;78.80
38488;DHT22;57384;51.986;4.458;2023-04-01T04:20:02;11.30;78.70
38488;DHT22;57384;51.986;4.458;2023-04-01T04:22:46;11.30;78.70
38488;DHT22;57384;51.986;4.458;2023-04-01T04:25:31;11.30;78.70
38488;DHT22;57384;51.986;4.458;2023-04-01T04:28:15;11.20;78.70
38488;DHT22;57384;51.986;4.458;2023-04-01T04:30:59;11.30;78.70
38488;DHT22;57384;51.986;4.458;2023-04-01T04:33:43;11.30;78.70
38488;DHT22;57384;51.986;4.458;2023-04-01T04:36:28;11.30;78.70
38488;DHT22;57384;51.986;4.458;2023-04-01T04:39:12;11.20;78.60
38488;DHT22;57384;51.986;4.458;2023-04-01T04:41:56;11.30;78.70
38488;DHT22;57384;51.986;4.458;2023-04-01T04:44:40;11.20;78.60
38488;DHT22;57384;51.986;4.458;2023-04-01T04:47:25;11.20;78.60
38488;DHT22;57384;51.986;4.458;2023-04-01T04:50:09;11.30;78.70
38488;DHT22;57384;51.986;4.458;2023-04-01T04:52:53;11.20;78.60
38488;DHT22;57384;51.986;4.458;2023-04-01T04:55:42;11.20;78.60
38488;DHT22;57384;51.986;4.458;2023-04-01T04:58:26;11.20;78.60
38488;DHT22;57384;51.986;4.458;2023-04-01T05:01:11;11.30;78.70
38488;DHT22;57384;51.986;4.458;2023-04-01T05:03:55;11.20;78.70
38488;DHT22;57384;51.986;4.458;2023-04-01T05:06:39;11.20;78.70
38488;DHT22;57384;51.986;4.458;2023-04-01T05:09:23;11.30;78.80
38488;DHT22;57384;51.986;4.458;2023-04-01T05:12:10;11.30;78.70
38488;DHT22;57384;51.986;4.458;2023-04-01T05:14:55;11.20;78.70
38488;DHT22;57384;51.986;4.458;2023-04-01T05:17:39;11.30;78.80
38488;DHT22;57384;51.986;4.458;2023-04-01T05:20:23;11.20;78.70
38488;DHT22;57384;51.986;4.458;2023-04-01T05:23:07;11.30;78.80
38488;DHT22;57384;51.986;4.458;2023-04-01T05:25:51;11.20;78.80
38488;DHT22;57384;51.986;4.458;2023-04-01T05:28:36;11.20;78.80
38488;DHT22;57384;51.986;4.458;2023-04-01T05:31:20;11.20;78.80
38488;DHT22;57384;51.986;4.458;2023-04-01T05:34:04;11.20;78.80
38488;DHT22;57384;51.986;4.458;2023-04-01T05:36:48;11.20;78.80
38488;DHT22;57384;51.986;4.458;2023-04-01T05:39:39;11.20;78.80
38488;DHT22;57384;51.986;4.458;2023-04-01T05:42:23;11.20;78.80
38488;DHT22;57384;51.986;4.458;2023-04-01T05:45:07;11.20;78.80
38488;DHT22;57384;51.986;4.458;2023-04-01T05:47:52;11.20;78.80
38488;DHT22;57384;51.986;4.458;2023-04-01T05:50:39;11.20;78.80
38488;DHT22;57384;51.986;4.458;2023-04-01T05:53:24;11.20;78.80
38488;DHT22;57384;51.986;4.458;2023-04-01T05:56:11;11.20;78.90
38488;DHT22;57384;51.986;4.458;2023-04-01T05:58:55;11.20;78.90
38488;DHT22;57384;51.986;4.458;2023-04-01T06:01:42;11.20;78.90
38488;DHT22;57384;51.986;4.458;2023-04-01T06:04:26;11.20;78.90
38488;DHT22;57384;51.986;4.458;2023-04-01T06:07:12;11.20;78.90
38488;DHT22;57384;51.986;4.458;2023-04-01T06:09:57;11.20;78.90
38488;DHT22;57384;51.986;4.458;2023-04-01T06:12:45;11.20;78.90
38488;DHT22;57384;51.986;4.458;2023-04-01T06:18:41;11.20;79.00
38488;DHT22;57384;51.986;4.458;2023-04-01T06:24:35;11.20;79.10
38488;DHT22;57384;51.986;4.458;2023-04-01T06:42:07;11.10;79.20
38488;DHT22;57384;51.986;4.458;2023-04-01T06:56:04;11.10;79.30
38488;DHT22;57384;51.986;4.458;2023-04-01T06:58:51;11.10;79.30
38488;DHT22;57384;51.986;4.458;2023-04-01T07:01:38;11.20;79.30
38488;DHT22;57384;51.986;4.458;2023-04-01T07:04:33;11.20;79.30
38488;DHT22;57384;51.986;4.458;2023-04-01T07:07:24;11.20;79.30
38488;DHT22;57384;51.986;4.458;2023-04-01T07:10:16;11.20;79.30
38488;DHT22;57384;51.986;4.458;2023-04-01T07:13:02;11.20;79.30
38488;DHT22;57384;51.986;4.458;2023-04-01T07:15:51;11.20;79.30
38488;DHT22;57384;51.986;4.458;2023-04-01T07:21:47;11.30;79.40
38488;DHT22;57384;51.986;4.458;2023-04-01T07:24:34;11.30;79.30
38488;DHT22;57384;51.986;4.458;2023-04-01T07:27:18;11.30;79.30
38488;DHT22;57384;51.986;4.458;2023-04-01T07:30:06;11.30;79.90
38488;DHT22;57384;51.986;4.458;2023-04-01T07:33:02;11.30;79.30
38488;DHT22;57384;51.986;4.458;2023-04-01T07:35:51;11.30;79.30
38488;DHT22;57384;51.986;4.458;2023-04-01T07:41:32;11.30;79.30
38488;DHT22;57384;51.986;4.458;2023-04-01T07:47:41;11.30;79.30
38488;DHT22;57384;51.986;4.458;2023-04-01T07:50:35;11.40;79.40
38488;DHT22;57384;51.986;4.458;2023-04-01T07:53:23;11.40;79.40
38488;DHT22;57384;51.986;4.458;2023-04-01T07:56:11;11.40;79.40
38488;DHT22;57384;51.986;4.458;2023-04-01T07:59:05;11.40;79.40
38488;DHT22;57384;51.986;4.458;2023-04-01T08:07:29;11.40;79.40
38488;DHT22;57384;51.986;4.458;2023-04-01T08:10:20;11.40;79.40
38488;DHT22;57384;51.986;4.458;2023-04-01T08:13:09;11.50;79.50
38488;DHT22;57384;51.986;4.458;2023-04-01T08:21:52;11.50;79.60
38488;DHT22;57384;51.986;4.458;2023-04-01T08:24:41;11.50;79.70
38488;DHT22;57384;51.986;4.458;2023-04-01T08:27:28;11.50;79.70
38488;DHT22;57384;51.986;4.458;2023-04-01T08:30:19;11.50;79.70
38488;DHT22;57384;51.986;4.458;2023-04-01T08:33:21;11.60;79.80
38488;DHT22;57384;51.986;4.458;2023-04-01T08:39:06;11.60;79.70
38488;DHT22;57384;51.986;4.458;2023-04-01T08:48:22;11.60;79.80
38488;DHT22;57384;51.986;4.458;2023-04-01T08:54:00;11.70;79.90
38488;DHT22;57384;51.986;4.458;2023-04-01T09:02:33;11.70;79.90
38488;DHT22;57384;51.986;4.458;2023-04-01T09:14:40;11.80;79.90
38488;DHT22;57384;51.986;4.458;2023-04-01T09:26:44;12.00;80.00
38488;DHT22;57384;51.986;4.458;2023-04-01T09:53:25;12.00;79.90
38488;DHT22;57384;51.986;4.458;2023-04-01T09:56:19;12.00;79.90
38488;DHT22;57384;51.986;4.458;2023-04-01T10:08:31;12.10;80.00
38488;DHT22;57384;51.986;4.458;2023-04-01T10:11:29;12.10;80.00
38488;DHT22;57384;51.986;4.458;2023-04-01T10:23:34;12.20;80.10
38488;DHT22;57384;51.986;4.458;2023-04-01T10:29:30;12.20;80.10
38488;DHT22;57384;51.986;4.458;2023-04-01T10:41:27;12.30;80.20
38488;DHT22;57384;51.986;4.458;2023-04-01T10:50:16;12.30;80.20
38488;DHT22;57384;51.986;4.458;2023-04-01T11:08:08;12.40;80.30
38488;DHT22;57384;51.986;4.458;2023-04-01T11:40:31;12.60;80.40
38488;DHT22;57384;51.986;4.458;2023-04-01T11:43:38;12.60;80.40
38488;DHT22;57384;51.986;4.458;2023-04-01T11:46:25;12.60;80.40
38488;DHT22;57384;51.986;4.458;2023-04-01T11:49:33;12.60;80.30
38488;DHT22;57384;51.986;4.458;2023-04-01T11:58:22;12.70;80.40
38488;DHT22;57384;51.986;4.458;2023-04-01T12:09:58;12.80;80.50
38488;DHT22;57384;51.986;4.458;2023-04-01T12:19:13;12.80;80.50
38488;DHT22;57384;51.986;4.458;2023-04-01T12:21:58;12.90;80.50
38488;DHT22;57384;51.986;4.458;2023-04-01T12:24:47;12.90;80.50
38488;DHT22;57384;51.986;4.458;2023-04-01T12:27:35;12.90;80.60
38488;DHT22;57384;51.986;4.458;2023-04-01T12:42:19;13.00;80.60
38488;DHT22;57384;51.986;4.458;2023-04-01T12:51:36;13.00;80.50
38488;DHT22;57384;51.986;4.458;2023-04-01T12:57:28;13.10;80.60
38488;DHT22;57384;51.986;4.458;2023-04-01T13:00:25;13.10;80.60
38488;DHT22;57384;51.986;4.458;2023-04-01T13:03:16;13.10;80.60
38488;DHT22;57384;51.986;4.458;2023-04-01T13:32:49;13.30;80.40
38488;DHT22;57384;51.986;4.458;2023-04-01T13:35:36;13.30;80.40
38488;DHT22;57384;51.986;4.458;2023-04-01T13:44:46;13.40;80.40
38488;DHT22;57384;51.986;4.458;2023-04-01T14:27:47;13.60;80.30
38488;DHT22;57384;51.986;4.458;2023-04-01T14:51:48;13.70;80.00
38488;DHT22;57384;51.986;4.458;2023-04-01T14:57:43;13.70;80.00
38488;DHT22;57384;51.986;4.458;2023-04-01T15:12:29;13.80;80.00
38488;DHT22;57384;51.986;4.458;2023-04-01T15:18:17;13.80;80.00
38488;DHT22;57384;51.986;4.458;2023-04-01T15:32:26;13.80;80.00
38488;DHT22;57384;51.986;4.458;2023-04-01T15:43:54;13.70;80.00
38488;DHT22;57384;51.986;4.458;2023-04-01T15:46:46;13.70;80.00
38488;DHT22;57384;51.986;4.458;2023-04-01T15:49:39;13.70;80.00
38488;DHT22;57384;51.986;4.458;2023-04-01T15:58:19;13.70;80.00
38488;DHT22;57384;51.986;4.458;2023-04-01T16:01:14;13.70;80.00
38488;DHT22;57384;51.986;4.458;2023-04-01T16:04:15;13.60;80.00
38488;DHT22;57384;51.986;4.458;2023-04-01T16:13:22;13.50;80.00
38488;DHT22;57384;51.986;4.458;2023-04-01T16:16:31;13.60;80.10
38488;DHT22;57384;51.986;4.458;2023-04-01T16:19:33;13.50;80.10
38488;DHT22;57384;51.986;4.458;2023-04-01T16:31:14;13.40;80.00
38488;DHT22;57384;51.986;4.458;2023-04-01T16:34:17;13.40;80.00
38488;DHT22;57384;51.986;4.458;2023-04-01T16:37:10;13.40;80.00
38488;DHT22;57384;51.986;4.458;2023-04-01T16:42:48;13.30;80.00
38488;DHT22;57384;51.986;4.458;2023-04-01T16:45:38;13.30;80.00
38488;DHT22;57384;51.986;4.458;2023-04-01T16:48:44;13.30;80.00
38488;DHT22;57384;51.986;4.458;2023-04-01T16:54:45;13.20;80.10
38488;DHT22;57384;51.986;4.458;2023-04-01T16:57:55;13.20;80.10
38488;DHT22;57384;51.986;4.458;2023-04-01T17:00:44;13.20;80.10
38488;DHT22;57384;51.986;4.458;2023-04-01T17:03:33;13.10;80.10
38488;DHT22;57384;51.986;4.458;2023-04-01T17:06:31;13.10;80.10
38488;DHT22;57384;51.986;4.458;2023-04-01T17:24:06;13.00;80.10
38488;DHT22;57384;51.986;4.458;2023-04-01T17:35:38;12.90;80.00
38488;DHT22;57384;51.986;4.458;2023-04-01T17:41:30;12.80;80.10
38488;DHT22;57384;51.986;4.458;2023-04-01T17:59:36;12.60;80.10
38488;DHT22;57384;51.986;4.458;2023-04-01T18:02:27;12.60;80.10
38488;DHT22;57384;51.986;4.458;2023-04-01T18:14:19;12.50;80.10
38488;DHT22;57384;51.986;4.458;2023-04-01T18:28:56;12.30;80.00
38488;DHT22;57384;51.986;4.458;2023-04-01T18:31:45;12.30;80.00
38488;DHT22;57384;51.986;4.458;2023-04-01T18:43:21;12.20;80.00
38488;DHT22;57384;51.986;4.458;2023-04-01T18:58:33;12.10;80.00
38488;DHT22;57384;51.986;4.458;2023-04-01T19:01:39;12.10;80.00
38488;DHT22;57384;51.986;4.458;2023-04-01T19:07:46;12.10;80.10
38488;DHT22;57384;51.986;4.458;2023-04-01T19:16:53;12.00;80.00
38488;DHT22;57384;51.986;4.458;2023-04-01T19:31:27;11.80;80.00
38488;DHT22;57384;51.986;4.458;2023-04-01T19:37:43;11.80;80.10
38488;DHT22;57384;51.986;4.458;2023-04-01T19:59:07;11.60;80.00
38488;DHT22;57384;51.986;4.458;2023-04-01T20:05:02;11.60;80.10
38488;DHT22;57384;51.986;4.458;2023-04-01T20:11:12;11.50;80.00
38488;DHT22;57384;51.986;4.458;2023-04-01T20:25:57;11.40;80.00
38488;DHT22;57384;51.986;4.458;2023-04-01T20:32:19;11.30;80.00
38488;DHT22;57384;51.986;4.458;2023-04-01T20:35:21;11.30;80.00
38488;DHT22;57384;51.986;4.458;2023-04-01T20:50:49;11.30;80.00
38488;DHT22;57384;51.986;4.458;2023-04-01T20:53:50;11.20;80.00
38488;DHT22;57384;51.986;4.458;2023-04-01T20:56:36;11.20;80.00
38488;DHT22;57384;51.986;4.458;2023-04-01T20:59:27;11.20;80.00
38488;DHT22;57384;51.986;4.458;2023-04-01T21:02:37;11.10;80.00
38488;DHT22;57384;51.986;4.458;2023-04-01T21:20:16;11.00;80.00
38488;DHT22;57384;51.986;4.458;2023-04-01T21:34:40;10.90;79.90
38488;DHT22;57384;51.986;4.458;2023-04-01T22:07:12;10.60;79.80
38488;DHT22;57384;51.986;4.458;2023-04-01T22:21:54;10.50;79.80
38488;DHT22;57384;51.986;4.458;2023-04-01T22:27:37;10.50;79.80
38488;DHT22;57384;51.986;4.458;2023-04-01T22:30:34;10.50;79.80
38488;DHT22;57384;51.986;4.458;2023-04-01T22:33:27;10.40;79.70
38488;DHT22;57384;51.986;4.458;2023-04-01T22:36:23;10.40;79.70
38488;DHT22;57384;51.986;4.458;2023-04-01T22:54:22;10.20;79.60
38488;DHT22;57384;51.986;4.458;2023-04-01T22:57:02;10.20;79.60
38488;DHT22;57384;51.986;4.458;2023-04-01T23:06:02;10.10;79.60
38488;DHT22;57384;51.986;4.458;2023-04-01T23:09:07;10.10;79.60
38488;DHT22;57384;51.986;4.458;2023-04-01T23:15:11;10.10;79.60
38488;DHT22;57384;51.986;4.458;2023-04-01T23:18:14;10.00;79.60
38488;DHT22;57384;51.986;4.458;2023-04-01T23:27:17;10.00;79.50
38488;DHT22;57384;51.986;4.458;2023-04-01T23:33:31;10.00;79.50
38488;DHT22;57384;51.986;4.458;2023-04-01T23:42:42;9.90;79.50
38488;DHT22;57384;51.986;4.458;2023-04-01T23:45:26;9.90;79.60
38488;DHT22;57384;51.986;4.458;2023-04-01T23:48:29;9.80;79.40
38488;DHT22;57384;51.986;4.458;2023-04-01T23:51:27;9.80;79.40
